createdAt,value
2023-03-26T00:00:00.437Z,3.90
2023-03-26T00:02:29.879Z,3.77
2023-03-26T00:04:58.253Z,3.43
2023-03-26T00:07:28.000Z,4.63
2023-03-26T00:09:58.089Z,4.00
2023-03-26T00:12:26.637Z,3.53
2023-03-26T00:14:56.402Z,3.63
2023-03-26T00:17:24.784Z,3.43
2023-03-26T00:19:54.838Z,4.10
2023-03-26T00:22:23.683Z,3.90
2023-03-26T00:24:52.198Z,3.77
2023-03-26T00:27:23.771Z,3.70
2023-03-26T00:29:52.159Z,4.20
2023-03-26T00:32:21.855Z,3.97
2023-03-26T00:34:52.023Z,4.00
2023-03-26T00:37:20.421Z,3.67
2023-03-26T00:39:49.164Z,3.87
2023-03-26T00:42:17.520Z,4.40
2023-03-26T00:44:46.227Z,4.57
2023-03-26T00:47:14.486Z,3.63
2023-03-26T00:49:46.797Z,3.87
2023-03-26T00:52:18.731Z,4.30
2023-03-26T00:54:47.364Z,4.60
2023-03-26T00:57:22.756Z,4.10
2023-03-26T00:59:57.716Z,4.60
2023-03-26T01:02:27.423Z,3.70
2023-03-26T01:05:02.929Z,4.10
2023-03-26T01:07:31.599Z,3.33
2023-03-26T01:10:01.349Z,4.20
2023-03-26T01:12:32.945Z,4.40
2023-03-26T01:15:04.001Z,4.20
2023-03-26T01:17:35.054Z,3.53
2023-03-26T01:20:16.637Z,4.87
2023-03-26T01:22:50.384Z,4.10
2023-03-26T01:25:21.354Z,3.97
2023-03-26T01:27:51.612Z,4.80
2023-03-26T01:30:25.691Z,4.20
2023-03-26T01:33:03.288Z,4.20
2023-03-26T01:35:43.926Z,3.73
2023-03-26T01:38:23.908Z,4.43
2023-03-26T01:40:58.406Z,4.73
2023-03-26T01:43:33.158Z,5.07
2023-03-26T01:46:04.827Z,3.90
2023-03-26T01:48:37.288Z,3.50
2023-03-26T01:51:07.118Z,4.03
2023-03-26T01:53:39.339Z,3.33
2023-03-26T01:56:15.256Z,3.40
2023-03-26T01:58:56.319Z,3.70
2023-03-26T02:01:31.266Z,3.70
2023-03-26T02:04:08.355Z,3.97
2023-03-26T02:06:44.234Z,3.53
2023-03-26T02:09:17.447Z,4.30
2023-03-26T02:11:49.351Z,4.70
2023-03-26T02:14:18.323Z,3.50
2023-03-26T02:16:48.045Z,3.93
2023-03-26T02:19:24.286Z,4.37
2023-03-26T02:21:52.698Z,4.40
2023-03-26T02:24:22.151Z,4.50
2023-03-26T02:26:58.131Z,3.93
2023-03-26T02:29:27.889Z,3.73
2023-03-26T02:31:56.381Z,3.80
2023-03-26T02:34:24.674Z,3.80
2023-03-26T02:36:57.156Z,3.03
2023-03-26T02:39:26.223Z,5.00
2023-03-26T02:42:02.976Z,3.37
2023-03-26T02:44:35.692Z,3.07
2023-03-26T02:47:04.013Z,3.70
2023-03-26T02:49:50.978Z,3.20
2023-03-26T02:52:43.106Z,3.67
2023-03-26T02:55:11.522Z,3.07
2023-03-26T02:57:43.391Z,3.67
2023-03-26T03:00:17.670Z,3.37
2023-03-26T03:02:49.382Z,4.40
2023-03-26T03:05:33.277Z,3.83
2023-03-26T03:08:20.675Z,3.30
2023-03-26T03:11:04.054Z,4.20
2023-03-26T03:13:43.121Z,3.00
2023-03-26T03:16:12.018Z,4.27
2023-03-26T03:18:40.321Z,3.10
2023-03-26T03:21:09.557Z,3.53
2023-03-26T03:23:37.822Z,3.40
2023-03-26T03:26:15.821Z,3.07
2023-03-26T03:28:50.761Z,4.07
2023-03-26T03:31:19.638Z,2.97
2023-03-26T03:33:48.071Z,3.10
2023-03-26T03:36:22.025Z,3.80
2023-03-26T03:39:02.573Z,2.90
2023-03-26T03:41:31.772Z,2.77
2023-03-26T03:44:04.151Z,3.30
2023-03-26T03:46:34.105Z,3.00
2023-03-26T03:49:02.805Z,2.43
2023-03-26T03:51:42.521Z,3.20
2023-03-26T03:54:20.199Z,3.27
2023-03-26T03:56:49.175Z,2.70
2023-03-26T03:59:37.549Z,2.63
2023-03-26T04:02:09.565Z,2.80
2023-03-26T04:04:46.426Z,2.80
2023-03-26T04:07:17.639Z,3.67
2023-03-26T04:10:05.332Z,2.50
2023-03-26T04:12:53.702Z,2.60
2023-03-26T04:15:36.048Z,2.83
2023-03-26T04:18:10.311Z,3.10
2023-03-26T04:20:41.096Z,2.07
2023-03-26T04:23:14.611Z,2.90
2023-03-26T04:25:48.540Z,2.33
2023-03-26T04:28:30.501Z,2.63
2023-03-26T04:31:24.151Z,2.80
2023-03-26T04:33:55.930Z,3.17
2023-03-26T04:36:28.819Z,2.83
2023-03-26T04:39:02.502Z,2.80
2023-03-26T04:41:51.961Z,3.57
2023-03-26T04:44:22.644Z,2.87
2023-03-26T04:47:19.008Z,2.50
2023-03-26T04:49:49.038Z,24.57
2023-03-26T04:52:19.245Z,20.30
2023-03-26T04:54:50.446Z,10.77
2023-03-26T04:57:24.812Z,12.20
2023-03-26T05:00:16.692Z,7.87
2023-03-26T05:02:54.097Z,4.57
2023-03-26T05:05:23.611Z,3.63
2023-03-26T05:07:52.710Z,3.33
2023-03-26T05:10:23.254Z,3.30
2023-03-26T05:12:56.482Z,3.60
2023-03-26T05:15:28.413Z,2.57
2023-03-26T05:18:27.458Z,2.30
2023-03-26T05:20:57.491Z,2.50
2023-03-26T05:23:27.284Z,2.83
2023-03-26T05:26:11.907Z,2.70
2023-03-26T05:28:40.332Z,2.77
2023-03-26T05:31:33.306Z,2.83
2023-03-26T05:34:04.678Z,2.53
2023-03-26T05:36:33.461Z,2.20
2023-03-26T05:39:12.780Z,3.10
2023-03-26T05:41:59.629Z,2.87
2023-03-26T05:44:38.351Z,2.30
2023-03-26T05:47:17.257Z,2.10
2023-03-26T05:49:48.250Z,2.40
2023-03-26T05:52:19.131Z,2.50
2023-03-26T05:55:08.406Z,2.40
2023-03-26T05:57:56.398Z,2.40
2023-03-26T06:00:43.376Z,3.13
2023-03-26T06:03:14.852Z,2.17
2023-03-26T06:06:07.585Z,2.13
2023-03-26T06:08:43.056Z,10.90
2023-03-26T06:11:12.687Z,19.30
2023-03-26T06:13:41.289Z,12.83
2023-03-26T06:16:13.682Z,8.10
2023-03-26T06:19:08.573Z,5.50
2023-03-26T06:21:52.121Z,4.37
2023-03-26T06:24:27.004Z,3.23
2023-03-26T06:27:08.356Z,2.77
2023-03-26T06:30:10.142Z,2.90
2023-03-26T06:32:50.305Z,2.57
2023-03-26T06:35:24.674Z,2.10
2023-03-26T06:37:54.769Z,2.37
2023-03-26T06:40:23.510Z,2.40
2023-03-26T06:43:14.718Z,2.60
2023-03-26T06:46:12.492Z,2.70
2023-03-26T06:49:16.467Z,2.40
2023-03-26T06:52:03.736Z,2.00
2023-03-26T06:54:53.741Z,2.37
2023-03-26T06:57:45.897Z,2.50
2023-03-26T07:00:37.321Z,2.40
2023-03-26T07:03:31.984Z,2.23
2023-03-26T07:06:19.030Z,2.13
2023-03-26T07:09:08.551Z,2.20
2023-03-26T07:12:08.190Z,2.67
2023-03-26T07:15:06.887Z,3.30
2023-03-26T07:17:57.151Z,11.50
2023-03-26T07:20:30.236Z,17.80
2023-03-26T07:22:59.194Z,13.37
2023-03-26T07:26:00.097Z,7.90
2023-03-26T07:29:04.003Z,5.17
2023-03-26T07:32:09.075Z,3.50
2023-03-26T07:35:02.890Z,3.57
2023-03-26T07:37:48.013Z,3.80
2023-03-26T07:40:55.356Z,2.43
2023-03-26T07:44:20.464Z,2.53
2023-03-26T07:47:09.703Z,2.20
2023-03-26T07:49:57.936Z,2.30
2023-03-26T07:52:39.572Z,2.70
2023-03-26T07:55:18.806Z,2.53
2023-03-26T07:58:19.349Z,2.00
2023-03-26T08:01:13.252Z,1.97
2023-03-26T08:03:58.928Z,2.17
2023-03-26T08:07:17.219Z,2.47
2023-03-26T08:10:13.656Z,2.13
2023-03-26T08:13:18.227Z,3.03
2023-03-26T08:15:54.472Z,5.00
2023-03-26T08:18:33.673Z,2.67
2023-03-26T08:21:08.102Z,2.30
2023-03-26T08:23:50.516Z,2.60
2023-03-26T08:26:29.646Z,2.90
2023-03-26T08:29:08.825Z,26.80
2023-03-26T08:31:40.189Z,28.77
2023-03-26T08:34:13.332Z,19.50
2023-03-26T08:36:42.312Z,12.30
2023-03-26T08:39:10.668Z,10.10
2023-03-26T08:42:12.497Z,8.17
2023-03-26T08:45:10.911Z,5.80
2023-03-26T08:48:09.907Z,4.30
2023-03-26T08:51:10.649Z,3.50
2023-03-26T08:54:07.544Z,3.43
2023-03-26T08:56:47.949Z,2.67
2023-03-26T08:59:47.132Z,2.40
2023-03-26T09:02:43.081Z,3.00
2023-03-26T09:05:54.890Z,2.63
2023-03-26T09:08:59.797Z,2.60
2023-03-26T09:11:56.536Z,3.50
2023-03-26T09:15:21.081Z,2.40
2023-03-26T09:18:14.907Z,2.57
2023-03-26T09:21:13.417Z,2.40
2023-03-26T09:24:04.978Z,2.53
2023-03-26T09:26:48.255Z,1.80
2023-03-26T09:30:04.435Z,3.30
2023-03-26T09:32:57.861Z,2.50
2023-03-26T09:35:53.283Z,1.80
2023-03-26T09:38:53.921Z,1.70
2023-03-26T09:41:39.352Z,1.50
2023-03-26T09:44:40.415Z,3.20
2023-03-26T09:47:41.462Z,23.07
2023-03-26T09:50:31.131Z,13.83
2023-03-26T09:53:17.980Z,8.10
2023-03-26T09:56:07.873Z,5.07
2023-03-26T09:59:03.580Z,4.60
2023-03-26T10:01:40.649Z,2.60
2023-03-26T10:04:43.184Z,1.83
2023-03-26T10:07:23.041Z,2.27
2023-03-26T10:09:57.984Z,1.87
2023-03-26T10:12:34.228Z,1.43
2023-03-26T10:15:16.078Z,1.37
2023-03-26T10:17:57.202Z,1.30
2023-03-26T10:20:38.936Z,1.03
2023-03-26T10:23:30.188Z,0.90
2023-03-26T10:26:09.668Z,0.97
2023-03-26T10:29:04.912Z,0.90
2023-03-26T10:31:53.810Z,0.70
2023-03-26T10:34:49.462Z,0.97
2023-03-26T10:37:26.426Z,0.90
2023-03-26T10:40:20.117Z,0.83
2023-03-26T10:43:08.962Z,0.70
2023-03-26T10:46:02.095Z,0.80
2023-03-26T10:48:45.583Z,0.70
2023-03-26T10:51:48.634Z,0.90
2023-03-26T10:54:36.165Z,8.30
2023-03-26T10:57:13.163Z,16.00
2023-03-26T10:59:41.756Z,6.10
2023-03-26T11:02:29.621Z,3.40
2023-03-26T11:05:19.366Z,2.17
2023-03-26T11:07:53.870Z,1.20
2023-03-26T11:10:41.320Z,1.30
2023-03-26T11:13:18.824Z,1.10
2023-03-26T11:15:54.509Z,1.77
2023-03-26T11:18:26.244Z,1.20
2023-03-26T11:21:19.185Z,1.10
2023-03-26T11:24:05.105Z,1.10
2023-03-26T11:26:46.427Z,1.20
2023-03-26T11:29:35.792Z,1.23
2023-03-26T11:32:07.677Z,1.00
2023-03-26T11:34:40.214Z,2.27
2023-03-26T11:37:17.618Z,1.07
2023-03-26T11:39:53.470Z,0.80
2023-03-26T11:42:29.890Z,0.90
2023-03-26T11:45:01.915Z,0.90
2023-03-26T11:47:36.504Z,0.80
2023-03-26T11:50:09.642Z,0.73
2023-03-26T11:52:38.498Z,0.87
2023-03-26T11:55:08.078Z,0.80
2023-03-26T11:57:39.475Z,0.90
2023-03-26T12:00:17.692Z,0.80
2023-03-26T12:02:47.944Z,0.83
2023-03-26T12:05:21.937Z,0.93
2023-03-26T12:07:58.440Z,0.90
2023-03-26T12:10:31.497Z,1.20
2023-03-26T12:13:04.783Z,0.70
2023-03-26T12:15:33.389Z,0.90
2023-03-26T12:18:21.573Z,1.00
2023-03-26T12:20:50.635Z,0.80
2023-03-26T12:23:35.907Z,0.70
2023-03-26T12:26:15.374Z,0.80
2023-03-26T12:28:50.425Z,0.90
2023-03-26T12:31:20.256Z,1.13
2023-03-26T12:34:07.742Z,1.53
2023-03-26T12:36:36.522Z,0.93
2023-03-26T12:40:06.717Z,1.10
2023-03-26T12:44:51.172Z,1.20
2023-03-26T12:45:21.189Z,1.17
2023-03-26T12:48:02.243Z,1.10
2023-03-26T12:50:52.451Z,0.80
2023-03-26T12:53:34.977Z,1.00
2023-03-26T12:56:12.310Z,0.80
2023-03-26T12:59:01.029Z,1.10
2023-03-26T13:01:40.213Z,1.00
2023-03-26T13:04:27.534Z,1.80
2023-03-26T13:07:02.740Z,1.40
2023-03-26T13:09:53.803Z,1.90
2023-03-26T13:12:34.436Z,1.23
2023-03-26T13:15:14.577Z,1.30
2023-03-26T13:17:55.111Z,1.50
2023-03-26T13:20:48.956Z,1.47
2023-03-26T13:23:27.772Z,1.40
2023-03-26T13:26:06.172Z,1.43
2023-03-26T13:28:42.923Z,1.53
2023-03-26T13:31:20.628Z,2.60
2023-03-26T13:34:00.279Z,3.37
2023-03-26T13:36:36.946Z,6.70
2023-03-26T13:39:18.077Z,7.23
2023-03-26T13:42:00.122Z,3.93
2023-03-26T13:44:38.643Z,2.30
2023-03-26T13:47:11.553Z,1.90
2023-03-26T13:49:45.283Z,2.23
2023-03-26T13:52:20.696Z,1.47
2023-03-26T13:54:55.907Z,1.10
2023-03-26T13:57:29.551Z,0.80
2023-03-26T14:00:02.471Z,1.23
2023-03-26T14:02:43.344Z,0.90
2023-03-26T14:05:18.691Z,1.00
2023-03-26T14:07:52.543Z,1.17
2023-03-26T14:10:24.904Z,1.70
2023-03-26T14:12:58.106Z,2.00
2023-03-26T14:15:31.746Z,1.60
2023-03-26T14:18:06.778Z,1.60
2023-03-26T14:21:05.922Z,1.77
2023-03-26T14:24:03.174Z,1.80
2023-03-26T14:26:47.845Z,1.80
2023-03-26T14:29:32.873Z,1.23
2023-03-26T14:32:24.195Z,1.50
2023-03-26T14:35:05.976Z,1.70
2023-03-26T14:38:08.268Z,1.40
2023-03-26T14:40:53.880Z,1.87
2023-03-26T14:43:50.796Z,1.50
2023-03-26T14:46:32.508Z,1.50
2023-03-26T14:49:38.344Z,1.63
2023-03-26T14:52:14.899Z,1.63
2023-03-26T14:54:48.836Z,2.60
2023-03-26T14:57:40.093Z,3.27
2023-03-26T15:00:51.317Z,3.27
2023-03-26T15:03:55.337Z,3.40
2023-03-26T15:07:07.392Z,2.67
2023-03-26T15:10:13.155Z,2.17
2023-03-26T15:13:04.522Z,1.73
2023-03-26T15:16:19.476Z,1.50
2023-03-26T15:19:26.383Z,1.60
2023-03-26T15:22:41.234Z,1.67
2023-03-26T15:25:50.482Z,1.60
2023-03-26T15:28:57.709Z,1.30
2023-03-26T15:31:43.217Z,1.47
2023-03-26T15:34:39.845Z,2.30
2023-03-26T15:37:48.745Z,1.90
2023-03-26T15:40:33.029Z,1.70
2023-03-26T15:43:11.623Z,2.20
2023-03-26T15:45:42.989Z,2.00
2023-03-26T15:48:30.130Z,1.80
2023-03-26T15:51:08.258Z,2.20
2023-03-26T15:53:44.855Z,8.70
2023-03-26T15:56:25.901Z,4.43
2023-03-26T15:59:02.736Z,2.57
2023-03-26T16:01:44.697Z,1.80
2023-03-26T16:04:30.761Z,1.80
2023-03-26T16:07:03.661Z,1.80
2023-03-26T16:09:58.060Z,2.07
2023-03-26T16:12:33.525Z,2.00
2023-03-26T16:15:29.649Z,2.00
2023-03-26T16:18:35.885Z,2.70
2023-03-26T16:21:32.213Z,2.67
2023-03-26T16:24:21.766Z,3.57
2023-03-26T16:27:09.242Z,2.77
2023-03-26T16:30:11.114Z,2.93
2023-03-26T16:32:46.027Z,4.80
2023-03-26T16:35:40.095Z,3.17
2023-03-26T16:38:14.276Z,3.83
2023-03-26T16:41:03.732Z,4.57
2023-03-26T16:44:02.370Z,4.73
2023-03-26T16:46:39.277Z,3.87
2023-03-26T16:49:21.042Z,4.10
2023-03-26T16:52:09.774Z,3.90
2023-03-26T16:54:47.922Z,4.17
2023-03-26T16:57:28.055Z,4.27
2023-03-26T17:00:23.405Z,4.40
2023-03-26T17:03:00.084Z,4.43
2023-03-26T17:05:37.861Z,3.83
2023-03-26T17:08:16.414Z,3.70
2023-03-26T17:10:57.553Z,5.10
2023-03-26T17:13:33.577Z,4.97
2023-03-26T17:16:11.650Z,4.80
2023-03-26T17:18:47.884Z,5.40
2023-03-26T17:21:23.077Z,4.33
2023-03-26T17:24:15.464Z,5.03
2023-03-26T17:27:00.507Z,5.80
2023-03-26T17:29:52.744Z,4.27
2023-03-26T17:32:23.229Z,4.47
2023-03-26T17:35:02.250Z,4.20
2023-03-26T17:37:50.519Z,3.40
2023-03-26T17:40:48.165Z,3.10
2023-03-26T17:43:36.679Z,3.80
2023-03-26T17:46:12.549Z,8.00
2023-03-26T17:48:47.027Z,7.93
2023-03-26T17:51:31.763Z,3.13
2023-03-26T17:54:02.286Z,3.73
2023-03-26T17:56:33.016Z,3.27
2023-03-26T17:59:11.666Z,3.93
2023-03-26T18:01:45.365Z,2.30
2023-03-26T18:04:19.784Z,2.80
2023-03-26T18:07:04.086Z,2.80
2023-03-26T18:09:49.063Z,2.57
2023-03-26T18:12:53.401Z,3.00
2023-03-26T18:15:51.166Z,2.97
2023-03-26T18:18:23.350Z,3.53
2023-03-26T18:20:55.072Z,3.43
2023-03-26T18:23:27.856Z,3.83
2023-03-26T18:26:00.636Z,4.80
2023-03-26T18:28:35.944Z,4.10
2023-03-26T18:31:18.735Z,3.03
2023-03-26T18:33:49.929Z,2.80
2023-03-26T18:36:19.805Z,2.63
2023-03-26T18:38:48.952Z,3.40
2023-03-26T18:41:27.451Z,3.30
2023-03-26T18:43:57.508Z,3.17
2023-03-26T18:46:27.300Z,3.20
2023-03-26T18:48:56.997Z,2.70
2023-03-26T18:51:29.532Z,3.43
2023-03-26T18:54:01.881Z,2.97
2023-03-26T18:56:34.677Z,2.80
2023-03-26T18:59:05.235Z,2.47
2023-03-26T19:01:36.667Z,2.77
2023-03-26T19:04:08.018Z,2.17
2023-03-26T19:06:41.266Z,2.90
2023-03-26T19:09:28.125Z,3.30
2023-03-26T19:12:06.963Z,3.70
2023-03-26T19:14:51.540Z,2.30
2023-03-26T19:17:20.300Z,2.70
2023-03-26T19:19:50.075Z,2.90
2023-03-26T19:22:19.196Z,2.23
2023-03-26T19:24:55.914Z,2.90
2023-03-26T19:27:26.247Z,3.40
2023-03-26T19:29:54.746Z,2.53
2023-03-26T19:32:32.383Z,2.60
2023-03-26T19:35:02.232Z,3.07
2023-03-26T19:37:33.373Z,2.93
2023-03-26T19:40:07.348Z,2.70
2023-03-26T19:42:44.138Z,2.80
2023-03-26T19:45:28.110Z,2.33
2023-03-26T19:48:11.769Z,3.80
2023-03-26T19:50:46.033Z,3.07
2023-03-26T19:53:22.537Z,2.30
2023-03-26T19:55:55.684Z,2.70
2023-03-26T19:58:27.168Z,2.63
2023-03-26T20:00:57.128Z,2.87
2023-03-26T20:03:29.904Z,2.70
2023-03-26T20:05:58.883Z,4.07
2023-03-26T20:08:28.048Z,2.73
2023-03-26T20:10:58.350Z,3.17
2023-03-26T20:13:30.223Z,2.10
2023-03-26T20:16:06.438Z,2.50
2023-03-26T20:18:35.496Z,2.50
2023-03-26T20:21:03.990Z,2.70
2023-03-26T20:23:32.765Z,3.00
2023-03-26T20:26:01.526Z,3.20
2023-03-26T20:28:35.406Z,2.50
2023-03-26T20:31:15.034Z,3.00
2023-03-26T20:33:43.916Z,2.80
2023-03-26T20:36:14.202Z,2.57
2023-03-26T20:39:01.646Z,3.00
2023-03-26T20:41:30.028Z,2.60
2023-03-26T20:44:00.116Z,2.17
2023-03-26T20:46:31.051Z,2.13
2023-03-26T20:49:00.938Z,2.87
2023-03-26T20:51:30.063Z,2.23
2023-03-26T20:53:58.816Z,2.77
2023-03-26T20:56:28.255Z,3.40
2023-03-26T20:59:09.823Z,2.67
2023-03-26T21:01:41.681Z,2.50
2023-03-26T21:04:11.744Z,2.77
2023-03-26T21:06:40.288Z,2.60
2023-03-26T21:09:10.747Z,2.13
2023-03-26T21:11:50.339Z,1.93
2023-03-26T21:14:22.660Z,2.33
2023-03-26T21:16:53.165Z,2.47
2023-03-26T21:19:22.507Z,1.87
2023-03-26T21:22:00.974Z,2.17
2023-03-26T21:24:55.332Z,2.40
2023-03-26T21:27:28.443Z,1.90
2023-03-26T21:29:58.291Z,2.70
2023-03-26T21:32:29.113Z,2.70
2023-03-26T21:34:59.516Z,2.60
2023-03-26T21:37:28.900Z,1.80
2023-03-26T21:39:57.886Z,2.70
2023-03-26T21:42:29.494Z,2.50
2023-03-26T21:44:58.666Z,2.57
2023-03-26T21:47:29.309Z,2.70
2023-03-26T21:49:58.238Z,1.80
2023-03-26T21:52:27.403Z,1.93
2023-03-26T21:55:00.759Z,2.10
2023-03-26T21:57:43.543Z,2.53
2023-03-26T22:00:15.540Z,2.20
2023-03-26T22:03:00.672Z,2.70
2023-03-26T22:05:36.400Z,2.23
2023-03-26T22:08:07.101Z,2.50
2023-03-26T22:10:35.503Z,2.50
2023-03-26T22:13:03.829Z,2.73
2023-03-26T22:15:32.374Z,2.80
2023-03-26T22:18:07.424Z,2.93
2023-03-26T22:20:35.936Z,3.40
2023-03-26T22:23:05.765Z,2.90
2023-03-26T22:25:34.211Z,3.57
2023-03-26T22:28:02.725Z,4.10
2023-03-26T22:30:31.666Z,2.50
2023-03-26T22:33:00.115Z,3.03
2023-03-26T22:35:29.948Z,2.80
2023-03-26T22:38:00.940Z,2.50
2023-03-26T22:40:29.911Z,3.10
2023-03-26T22:42:58.313Z,2.70
2023-03-26T22:45:27.935Z,2.53
2023-03-26T22:48:03.456Z,2.60
2023-03-26T22:50:34.897Z,2.67
2023-03-26T22:53:03.239Z,2.93
2023-03-26T22:55:32.348Z,2.90
2023-03-26T22:58:04.891Z,2.43
2023-03-26T23:00:34.838Z,2.80
2023-03-26T23:03:04.562Z,2.70
2023-03-26T23:05:34.779Z,2.60
2023-03-26T23:08:03.192Z,2.40
2023-03-26T23:10:31.570Z,2.70
2023-03-26T23:12:59.927Z,2.23
2023-03-26T23:15:28.179Z,2.17
2023-03-26T23:17:56.562Z,2.67
2023-03-26T23:20:25.351Z,3.00
2023-03-26T23:22:55.812Z,2.30
2023-03-26T23:25:24.109Z,3.27
2023-03-26T23:27:53.768Z,2.60
2023-03-26T23:30:22.138Z,2.03
2023-03-26T23:32:50.467Z,3.33
2023-03-26T23:35:18.784Z,3.30
2023-03-26T23:37:47.152Z,3.10
2023-03-26T23:40:17.053Z,2.30
2023-03-26T23:42:47.450Z,2.50
2023-03-26T23:45:16.489Z,2.47
2023-03-26T23:47:45.018Z,2.67
2023-03-26T23:50:13.309Z,2.33
2023-03-26T23:52:41.685Z,3.13
2023-03-26T23:55:10.765Z,2.20
2023-03-26T23:57:40.587Z,2.03
